地図

経路データ

SID SEASON NUMBER BASIN SUBBASIN NAME ISO_TIME NATURE LAT LON WMO_WIND WMO_PRES WMO_AGENCY TRACK_TYPE DIST2LAND LANDFALL IFLAG USA_AGENCY USA_ATCF_ID USA_LAT USA_LON USA_RECORD USA_STATUS USA_WIND USA_PRES USA_SSHS USA_R34_NE USA_R34_SE USA_R34_SW USA_R34_NW USA_R50_NE USA_R50_SE USA_R50_SW USA_R50_NW USA_R64_NE USA_R64_SE USA_R64_SW USA_R64_NW USA_POCI USA_ROCI USA_RMW USA_EYE TOKYO_LAT TOKYO_LON TOKYO_GRADE TOKYO_WIND TOKYO_PRES TOKYO_R50_DIR TOKYO_R50_LONG TOKYO_R50_SHORT TOKYO_R30_DIR TOKYO_R30_LONG TOKYO_R30_SHORT TOKYO_LAND CMA_LAT CMA_LON CMA_CAT CMA_WIND CMA_PRES HKO_LAT HKO_LON HKO_CAT HKO_WIND HKO_PRES NEWDELHI_LAT NEWDELHI_LON NEWDELHI_GRADE NEWDELHI_WIND NEWDELHI_PRES NEWDELHI_CI NEWDELHI_DP NEWDELHI_POCI REUNION_LAT REUNION_LON REUNION_TYPE REUNION_WIND REUNION_PRES REUNION_TNUM REUNION_CI REUNION_RMW REUNION_R34_NE REUNION_R34_SE REUNION_R34_SW REUNION_R34_NW REUNION_R50_NE REUNION_R50_SE REUNION_R50_SW REUNION_R50_NW REUNION_R64_NE REUNION_R64_SE REUNION_R64_SW REUNION_R64_NW BOM_LAT BOM_LON BOM_TYPE BOM_WIND BOM_PRES BOM_TNUM BOM_CI BOM_RMW BOM_R34_NE BOM_R34_SE BOM_R34_SW BOM_R34_NW BOM_R50_NE BOM_R50_SE BOM_R50_SW BOM_R50_NW BOM_R64_NE BOM_R64_SE BOM_R64_SW BOM_R64_NW BOM_ROCI BOM_POCI BOM_EYE BOM_POS_METHOD BOM_PRES_METHOD NADI_LAT NADI_LON NADI_CAT NADI_WIND NADI_PRES WELLINGTON_LAT WELLINGTON_LON WELLINGTON_WIND WELLINGTON_PRES DS824_LAT DS824_LON DS824_STAGE DS824_WIND DS824_PRES TD9636_LAT TD9636_LON TD9636_STAGE TD9636_WIND TD9636_PRES TD9635_LAT TD9635_LON TD9635_WIND TD9635_PRES TD9635_ROCI NEUMANN_LAT NEUMANN_LON NEUMANN_CLASS NEUMANN_WIND NEUMANN_PRES MLC_LAT MLC_LON MLC_CLASS MLC_WIND MLC_PRES USA_GUST BOM_GUST BOM_GUST_PER REUNION_GUST REUNION_GUST_PER USA_SEAHGT USA_SEARAD_NE USA_SEARAD_SE USA_SEARAD_SW USA_SEARAD_NW STORM_SPEED STORM_DIR
1980243N09134 1980 68 WP MM NOT_NAMED 1980-08-30 06:00:00 TS 9.00000 133.500 main 773 732 __O___________ -1 9.00000 133.500 0 17 1006 8 285
1980243N09134 1980 68 WP MM NOT_NAMED 1980-08-30 09:00:00 TS 9.10011 133.128 main 732 702 __P___________ -1 9.10011 133.128 0 18 1005 7 286
1980243N09134 1980 68 WP MM NOT_NAMED 1980-08-30 12:00:00 TS 9.20000 132.800 main 702 684 __O___________ -1 9.20000 132.800 0 19 1005 6 289
1980243N09134 1980 68 WP MM NOT_NAMED 1980-08-30 15:00:00 TS 9.29993 132.542 main 673 655 __P___________ -1 9.29993 132.542 0 19 1005 5 292
1980243N09134 1980 68 WP MM NOT_NAMED 1980-08-30 18:00:00 TS 9.40000 132.300 main 655 627 __O___________ -1 9.40000 132.300 0 19 1005 6 291
1980243N09134 1980 68 WP MM NOT_NAMED 1980-08-30 21:00:00 TS 9.50754 131.985 main 627 599 __P___________ -1 9.50754 131.985 0 19 1005 6 289
1980243N09134 1980 68 WP MM NOT_NAMED 1980-08-31 00:00:00 TS 9.60000 131.700 main 599 580 __O___________ -1 9.60000 131.700 0 19 1005 5 289
1980243N09134 1980 68 WP MM NOT_NAMED 1980-08-31 03:00:00 TS 9.65744 131.535 main 580 569 __P___________ -1 9.65744 131.535 0 19 1005 3 289
1980243N09134 1980 68 WP MM NOT_NAMED 1980-08-31 06:00:00 TS 9.70000 131.400 main 569 547 __O___________ -1 9.70000 131.400 0 19 1006 3 286
1980243N09134 1980 68 WP MM NOT_NAMED 1980-08-31 09:00:00 TS 9.74999 131.215 main 547 528 __P___________ -1 9.74999 131.215 0 19 1006 4 284
1980243N09134 1980 68 WP MM NOT_NAMED 1980-08-31 12:00:00 TS 9.80000 131.000 main 528 506 __O___________ -1 9.80000 131.000 0 19 1006 5 283
1980243N09134 1980 68 WP MM NOT_NAMED 1980-08-31 15:00:00 TS 9.85000 130.757 main 509 477 __P___________ -1 9.85000 130.757 0 21 1006 5 281
1980243N09134 1980 68 WP MM NOT_NAMED 1980-08-31 18:00:00 TS 9.90000 130.500 main 477 456 __O___________ -1 9.90000 130.500 1 23 1006 5 280
1980243N09134 1980 68 WP MM NOT_NAMED 1980-08-31 21:00:00 TS 9.94248 130.250 main 456 426 __P___________ -1 9.94248 130.250 1 23 1006 5 281
1980243N09134 1980 68 WP MM NOT_NAMED 1980-09-01 00:00:00 TS 10.0000 130.000 main 426 405 __O___________ -1 10.0000 130.000 1 23 1006 5 286
1980243N09134 1980 68 WP MM NOT_NAMED 1980-09-01 03:00:00 TS 10.0850 129.750 main 407 378 __P___________ -1 10.0850 129.750 1 23 1006 5 292
1980243N09134 1980 68 WP MM NOT_NAMED 1980-09-01 06:00:00 TS 10.2000 129.500 main 378 361 __O___________ -1 10.2000 129.500 1 23 1006 6 298
1980243N09134 1980 68 WP MM NOT_NAMED 1980-09-01 09:00:00 TS 10.3425 129.250 main 361 339 __P___________ -1 10.3425 129.250 1 23 1006 6 301
1980243N09134 1980 68 WP MM NOT_NAMED 1980-09-01 12:00:00 TS 10.5000 129.000 main 339 325 __O___________ -1 10.5000 129.000 1 23 1006 6 302
1980243N09134 1980 68 WP MM NOT_NAMED 1980-09-01 15:00:00 TS 10.6500 128.750 main 325 295 __P___________ -1 10.6500 128.750 1 23 1006 6 301
1980243N09134 1980 68 WP MM NOT_NAMED 1980-09-01 18:00:00 TS 10.8000 128.500 main 295 273 __O___________ -1 10.8000 128.500 1 23 1006 6 302
1980243N09134 1980 68 WP MM NOT_NAMED 1980-09-01 21:00:00 TS 10.9424 128.265 main 273 240 __P___________ -1 10.9424 128.265 1 23 1006 6 301
1980243N09134 1980 68 WP MM NOT_NAMED 1980-09-02 00:00:00 TS 11.1000 128.000 main 240 208 __O___________ -1 11.1000 128.000 1 23 1006 7 300
1980243N09134 1980 68 WP MM NOT_NAMED 1980-09-02 03:00:00 TS 11.2851 127.650 main 210 173 __P___________ -1 11.2851 127.650 1 23 1006 8 300
1980243N09134 1980 68 WP MM NOT_NAMED 1980-09-02 06:00:00 TS 11.5000 127.300 main 173 152 __O___________ -1 11.5000 127.300 1 23 1006 8 307
1980243N09134 1980 68 WP MM NOT_NAMED 1980-09-02 09:00:00 TS 11.7425 127.025 main 152 142 __P___________ -1 11.7425 127.025 1 21 1007 7 316
1980243N09134 1980 68 WP MM NOT_NAMED 1980-09-02 12:00:00 TS 12.0000 126.800 main 143 __O___________ -1 12.0000 126.800 0 19 1008 7 320

デジタル台風データ・検索

IBTrACS Databaseについて

本データベースは、米国NOAAが公開する1842年以降の世界の熱帯低気圧のベストトラックデータアーカイブInternational Best Track Archive for Climate Stewardship (IBTrACS)を、ウェブで閲覧しやすい形式に変換したものです。

最終更新日:2021-12-03